sensor_id;sensor_type;location;lat;lon;timestamp;P1;durP1;ratioP1;P2;durP2;ratioP2
430;SDS011;202;48.764;9.172;2022-07-24T00:08:38;9.20;;;8.70;;
430;SDS011;202;48.764;9.172;2022-07-24T00:11:21;9.50;;;9.00;;
430;SDS011;202;48.764;9.172;2022-07-24T00:14:02;9.73;;;9.23;;
430;SDS011;202;48.764;9.172;2022-07-24T00:16:37;10.77;;;10.17;;
430;SDS011;202;48.764;9.172;2022-07-24T00:36:39;10.00;;;9.43;;
430;SDS011;202;48.764;9.172;2022-07-24T00:43:39;9.90;;;9.50;;
430;SDS011;202;48.764;9.172;2022-07-24T00:46:54;8.70;;;8.20;;
430;SDS011;202;48.764;9.172;2022-07-24T00:53:19;9.10;;;8.60;;
430;SDS011;202;48.764;9.172;2022-07-24T00:56:14;9.57;;;9.07;;
430;SDS011;202;48.764;9.172;2022-07-24T00:59:13;9.43;;;8.93;;
430;SDS011;202;48.764;9.172;2022-07-24T01:05:07;10.20;;;8.93;;
430;SDS011;202;48.764;9.172;2022-07-24T01:07:50;10.60;;;10.00;;
430;SDS011;202;48.764;9.172;2022-07-24T01:10:58;10.20;;;9.70;;
430;SDS011;202;48.764;9.172;2022-07-24T01:13:47;11.43;;;9.60;;
430;SDS011;202;48.764;9.172;2022-07-24T01:16:27;9.00;;;8.50;;
430;SDS011;202;48.764;9.172;2022-07-24T01:19:00;10.30;;;9.80;;
430;SDS011;202;48.764;9.172;2022-07-24T01:21:28;10.03;;;8.93;;
430;SDS011;202;48.764;9.172;2022-07-24T01:23:55;10.43;;;9.27;;
430;SDS011;202;48.764;9.172;2022-07-24T01:26:22;9.50;;;9.00;;
430;SDS011;202;48.764;9.172;2022-07-24T01:28:48;9.87;;;9.40;;
430;SDS011;202;48.764;9.172;2022-07-24T01:31:15;9.57;;;9.07;;
430;SDS011;202;48.764;9.172;2022-07-24T01:33:42;10.23;;;9.73;;
430;SDS011;202;48.764;9.172;2022-07-24T01:36:09;10.43;;;9.27;;
430;SDS011;202;48.764;9.172;2022-07-24T01:38:37;10.50;;;9.53;;
430;SDS011;202;48.764;9.172;2022-07-24T01:41:04;10.03;;;9.57;;
430;SDS011;202;48.764;9.172;2022-07-24T01:43:31;10.67;;;10.07;;
430;SDS011;202;48.764;9.172;2022-07-24T01:45:58;10.60;;;10.00;;
430;SDS011;202;48.764;9.172;2022-07-24T01:48:28;10.93;;;9.67;;
430;SDS011;202;48.764;9.172;2022-07-24T01:50:55;9.20;;;8.70;;
430;SDS011;202;48.764;9.172;2022-07-24T01:53:22;11.63;;;9.80;;
430;SDS011;202;48.764;9.172;2022-07-24T01:55:51;10.93;;;10.33;;
430;SDS011;202;48.764;9.172;2022-07-24T01:58:19;9.43;;;8.93;;
430;SDS011;202;48.764;9.172;2022-07-24T02:00:46;10.20;;;8.87;;
430;SDS011;202;48.764;9.172;2022-07-24T02:03:13;8.93;;;8.43;;
430;SDS011;202;48.764;9.172;2022-07-24T02:05:40;10.30;;;9.80;;
430;SDS011;202;48.764;9.172;2022-07-24T02:08:07;8.73;;;8.23;;
430;SDS011;202;48.764;9.172;2022-07-24T02:10:36;10.17;;;9.67;;
430;SDS011;202;48.764;9.172;2022-07-24T02:13:04;9.07;;;8.57;;
430;SDS011;202;48.764;9.172;2022-07-24T02:15:32;11.17;;;10.57;;
430;SDS011;202;48.764;9.172;2022-07-24T02:17:59;9.93;;;9.43;;
430;SDS011;202;48.764;9.172;2022-07-24T02:20:29;9.93;;;9.43;;
430;SDS011;202;48.764;9.172;2022-07-24T02:22:59;9.20;;;8.70;;
430;SDS011;202;48.764;9.172;2022-07-24T02:25:26;9.27;;;8.77;;
430;SDS011;202;48.764;9.172;2022-07-24T02:27:56;9.63;;;9.13;;
430;SDS011;202;48.764;9.172;2022-07-24T02:30:24;10.23;;;9.77;;
430;SDS011;202;48.764;9.172;2022-07-24T02:32:51;10.10;;;9.60;;
430;SDS011;202;48.764;9.172;2022-07-24T02:35:18;11.97;;;10.10;;
430;SDS011;202;48.764;9.172;2022-07-24T02:37:45;10.37;;;9.87;;
430;SDS011;202;48.764;9.172;2022-07-24T02:40:12;10.23;;;9.73;;
430;SDS011;202;48.764;9.172;2022-07-24T02:42:40;10.00;;;9.50;;
430;SDS011;202;48.764;9.172;2022-07-24T02:45:07;11.93;;;11.33;;
430;SDS011;202;48.764;9.172;2022-07-24T02:47:47;10.80;;;10.20;;
430;SDS011;202;48.764;9.172;2022-07-24T02:50:15;10.70;;;10.10;;
430;SDS011;202;48.764;9.172;2022-07-24T02:53:09;11.80;;;11.20;;
430;SDS011;202;48.764;9.172;2022-07-24T02:56:06;12.27;;;11.70;;
430;SDS011;202;48.764;9.172;2022-07-24T03:02:29;12.10;;;11.50;;
430;SDS011;202;48.764;9.172;2022-07-24T03:05:44;11.60;;;10.33;;
430;SDS011;202;48.764;9.172;2022-07-24T03:08:44;11.07;;;10.30;;
430;SDS011;202;48.764;9.172;2022-07-24T03:11:43;11.20;;;10.60;;
430;SDS011;202;48.764;9.172;2022-07-24T03:40:35;12.43;;;11.33;;
430;SDS011;202;48.764;9.172;2022-07-24T03:43:01;11.60;;;11.00;;
430;SDS011;202;48.764;9.172;2022-07-24T03:45:30;12.10;;;11.50;;
430;SDS011;202;48.764;9.172;2022-07-24T03:47:58;11.50;;;10.90;;
430;SDS011;202;48.764;9.172;2022-07-24T03:50:26;12.80;;;11.20;;
430;SDS011;202;48.764;9.172;2022-07-24T03:52:56;11.83;;;11.23;;
430;SDS011;202;48.764;9.172;2022-07-24T03:55:23;12.53;;;11.90;;
430;SDS011;202;48.764;9.172;2022-07-24T03:57:52;11.97;;;10.43;;
430;SDS011;202;48.764;9.172;2022-07-24T04:00:19;12.43;;;11.83;;
430;SDS011;202;48.764;9.172;2022-07-24T04:02:46;11.73;;;11.13;;
430;SDS011;202;48.764;9.172;2022-07-24T04:05:13;11.57;;;10.57;;
430;SDS011;202;48.764;9.172;2022-07-24T04:07:40;11.50;;;10.90;;
430;SDS011;202;48.764;9.172;2022-07-24T04:10:09;10.80;;;10.20;;
430;SDS011;202;48.764;9.172;2022-07-24T04:12:36;10.97;;;10.37;;
430;SDS011;202;48.764;9.172;2022-07-24T04:15:10;11.07;;;10.47;;
430;SDS011;202;48.764;9.172;2022-07-24T04:17:44;11.87;;;10.33;;
430;SDS011;202;48.764;9.172;2022-07-24T04:20:14;10.17;;;9.63;;
430;SDS011;202;48.764;9.172;2022-07-24T04:22:47;11.40;;;10.80;;
430;SDS011;202;48.764;9.172;2022-07-24T04:25:15;11.13;;;10.53;;
430;SDS011;202;48.764;9.172;2022-07-24T04:27:48;10.60;;;10.00;;
430;SDS011;202;48.764;9.172;2022-07-24T04:30:17;9.50;;;9.00;;
430;SDS011;202;48.764;9.172;2022-07-24T04:32:47;12.13;;;10.50;;
430;SDS011;202;48.764;9.172;2022-07-24T04:35:14;11.20;;;10.60;;
430;SDS011;202;48.764;9.172;2022-07-24T04:37:44;10.23;;;9.03;;
430;SDS011;202;48.764;9.172;2022-07-24T04:40:27;9.83;;;9.33;;
430;SDS011;202;48.764;9.172;2022-07-24T04:43:32;10.40;;;9.87;;
430;SDS011;202;48.764;9.172;2022-07-24T04:46:00;10.60;;;10.03;;
430;SDS011;202;48.764;9.172;2022-07-24T04:48:27;11.53;;;10.77;;
430;SDS011;202;48.764;9.172;2022-07-24T04:50:54;10.33;;;9.63;;
430;SDS011;202;48.764;9.172;2022-07-24T04:53:29;10.83;;;10.23;;
430;SDS011;202;48.764;9.172;2022-07-24T04:55:58;12.43;;;11.83;;
430;SDS011;202;48.764;9.172;2022-07-24T05:01:22;10.33;;;9.50;;
430;SDS011;202;48.764;9.172;2022-07-24T05:04:11;10.90;;;10.30;;
430;SDS011;202;48.764;9.172;2022-07-24T05:06:52;12.47;;;10.30;;
430;SDS011;202;48.764;9.172;2022-07-24T05:09:29;11.50;;;10.23;;
430;SDS011;202;48.764;9.172;2022-07-24T05:12:10;12.80;;;9.83;;
430;SDS011;202;48.764;9.172;2022-07-24T05:14:37;11.20;;;10.63;;
430;SDS011;202;48.764;9.172;2022-07-24T05:17:05;10.83;;;10.23;;
430;SDS011;202;48.764;9.172;2022-07-24T05:19:32;9.60;;;9.03;;
430;SDS011;202;48.764;9.172;2022-07-24T05:22:01;11.37;;;10.77;;
430;SDS011;202;48.764;9.172;2022-07-24T05:24:30;11.10;;;10.50;;
430;SDS011;202;48.764;9.172;2022-07-24T05:26:57;11.07;;;9.30;;
430;SDS011;202;48.764;9.172;2022-07-24T05:29:26;11.23;;;10.63;;
430;SDS011;202;48.764;9.172;2022-07-24T05:31:53;10.80;;;10.20;;
430;SDS011;202;48.764;9.172;2022-07-24T05:34:23;10.10;;;9.60;;
430;SDS011;202;48.764;9.172;2022-07-24T05:36:50;10.63;;;9.97;;
430;SDS011;202;48.764;9.172;2022-07-24T05:39:17;10.33;;;9.83;;
430;SDS011;202;48.764;9.172;2022-07-24T05:41:44;10.10;;;9.60;;
430;SDS011;202;48.764;9.172;2022-07-24T05:44:11;9.90;;;9.40;;
430;SDS011;202;48.764;9.172;2022-07-24T05:46:37;11.20;;;9.23;;
430;SDS011;202;48.764;9.172;2022-07-24T05:49:04;14.17;;;9.47;;
430;SDS011;202;48.764;9.172;2022-07-24T05:51:32;9.83;;;9.33;;
430;SDS011;202;48.764;9.172;2022-07-24T05:53:59;10.10;;;9.60;;
430;SDS011;202;48.764;9.172;2022-07-24T05:56:26;9.60;;;8.90;;
430;SDS011;202;48.764;9.172;2022-07-24T05:58:53;9.60;;;9.10;;
430;SDS011;202;48.764;9.172;2022-07-24T06:01:20;11.87;;;8.50;;
430;SDS011;202;48.764;9.172;2022-07-24T06:03:47;9.40;;;8.90;;
430;SDS011;202;48.764;9.172;2022-07-24T06:06:14;10.20;;;9.23;;
430;SDS011;202;48.764;9.172;2022-07-24T06:08:42;10.20;;;9.70;;
430;SDS011;202;48.764;9.172;2022-07-24T06:11:10;9.90;;;9.40;;
430;SDS011;202;48.764;9.172;2022-07-24T06:13:37;9.47;;;8.70;;
430;SDS011;202;48.764;9.172;2022-07-24T06:16:04;9.53;;;9.03;;
430;SDS011;202;48.764;9.172;2022-07-24T06:18:31;9.93;;;9.43;;
430;SDS011;202;48.764;9.172;2022-07-24T06:20:58;9.27;;;8.77;;
430;SDS011;202;48.764;9.172;2022-07-24T06:23:24;10.37;;;9.37;;
430;SDS011;202;48.764;9.172;2022-07-24T06:25:53;8.70;;;8.20;;
430;SDS011;202;48.764;9.172;2022-07-24T06:28:20;9.03;;;8.53;;
430;SDS011;202;48.764;9.172;2022-07-24T06:30:47;9.50;;;8.70;;
430;SDS011;202;48.764;9.172;2022-07-24T06:33:13;9.47;;;8.97;;
430;SDS011;202;48.764;9.172;2022-07-24T06:35:40;9.80;;;9.30;;
430;SDS011;202;48.764;9.172;2022-07-24T06:38:07;9.80;;;9.30;;
430;SDS011;202;48.764;9.172;2022-07-24T06:40:35;11.30;;;9.23;;
430;SDS011;202;48.764;9.172;2022-07-24T06:43:04;9.30;;;8.80;;
430;SDS011;202;48.764;9.172;2022-07-24T06:45:31;9.07;;;8.57;;
430;SDS011;202;48.764;9.172;2022-07-24T06:47:58;9.30;;;8.80;;
430;SDS011;202;48.764;9.172;2022-07-24T06:50:25;8.97;;;8.47;;
430;SDS011;202;48.764;9.172;2022-07-24T06:52:53;9.33;;;8.83;;
430;SDS011;202;48.764;9.172;2022-07-24T06:55:20;9.03;;;8.53;;
430;SDS011;202;48.764;9.172;2022-07-24T06:57:47;8.90;;;8.40;;
430;SDS011;202;48.764;9.172;2022-07-24T07:00:16;9.90;;;9.40;;
430;SDS011;202;48.764;9.172;2022-07-24T07:02:43;8.97;;;8.47;;
430;SDS011;202;48.764;9.172;2022-07-24T07:05:10;9.53;;;9.07;;
430;SDS011;202;48.764;9.172;2022-07-24T07:07:38;9.13;;;8.63;;
430;SDS011;202;48.764;9.172;2022-07-24T07:10:05;9.27;;;8.80;;
430;SDS011;202;48.764;9.172;2022-07-24T07:12:33;10.97;;;9.50;;
430;SDS011;202;48.764;9.172;2022-07-24T07:15:00;12.30;;;8.90;;
430;SDS011;202;48.764;9.172;2022-07-24T07:17:28;8.90;;;8.40;;
430;SDS011;202;48.764;9.172;2022-07-24T07:19:55;9.30;;;8.80;;
430;SDS011;202;48.764;9.172;2022-07-24T07:22:22;9.37;;;8.87;;
430;SDS011;202;48.764;9.172;2022-07-24T07:24:49;9.50;;;9.00;;
430;SDS011;202;48.764;9.172;2022-07-24T07:27:16;10.17;;;9.67;;
430;SDS011;202;48.764;9.172;2022-07-24T07:29:43;10.70;;;10.10;;
430;SDS011;202;48.764;9.172;2022-07-24T07:32:09;10.07;;;9.57;;
430;SDS011;202;48.764;9.172;2022-07-24T07:34:38;10.73;;;10.13;;
430;SDS011;202;48.764;9.172;2022-07-24T07:37:05;10.30;;;9.80;;
430;SDS011;202;48.764;9.172;2022-07-24T07:39:31;10.17;;;9.67;;
430;SDS011;202;48.764;9.172;2022-07-24T07:41:58;11.30;;;10.70;;
430;SDS011;202;48.764;9.172;2022-07-24T07:44:25;10.20;;;9.70;;
430;SDS011;202;48.764;9.172;2022-07-24T07:46:52;10.73;;;10.13;;
430;SDS011;202;48.764;9.172;2022-07-24T07:49:19;10.70;;;10.10;;
430;SDS011;202;48.764;9.172;2022-07-24T07:51:47;12.13;;;11.53;;
430;SDS011;202;48.764;9.172;2022-07-24T07:54:16;10.87;;;10.27;;
430;SDS011;202;48.764;9.172;2022-07-24T07:56:43;11.17;;;10.57;;
430;SDS011;202;48.764;9.172;2022-07-24T07:59:10;11.77;;;11.17;;
430;SDS011;202;48.764;9.172;2022-07-24T08:01:37;10.90;;;10.30;;
430;SDS011;202;48.764;9.172;2022-07-24T08:04:04;10.53;;;9.97;;
430;SDS011;202;48.764;9.172;2022-07-24T08:06:31;9.50;;;9.00;;
430;SDS011;202;48.764;9.172;2022-07-24T08:08:59;10.60;;;10.00;;
430;SDS011;202;48.764;9.172;2022-07-24T08:11:26;10.60;;;10.00;;
430;SDS011;202;48.764;9.172;2022-07-24T08:13:53;9.23;;;8.73;;
430;SDS011;202;48.764;9.172;2022-07-24T08:16:23;10.23;;;9.73;;
430;SDS011;202;48.764;9.172;2022-07-24T08:18:50;10.17;;;9.67;;
430;SDS011;202;48.764;9.172;2022-07-24T08:21:16;10.20;;;9.70;;
430;SDS011;202;48.764;9.172;2022-07-24T08:23:43;11.77;;;11.17;;
430;SDS011;202;48.764;9.172;2022-07-24T08:26:13;9.90;;;9.40;;
430;SDS011;202;48.764;9.172;2022-07-24T08:28:40;9.60;;;7.97;;
430;SDS011;202;48.764;9.172;2022-07-24T08:31:07;8.93;;;8.43;;
430;SDS011;202;48.764;9.172;2022-07-24T08:33:34;11.00;;;10.40;;
430;SDS011;202;48.764;9.172;2022-07-24T08:36:01;9.70;;;9.20;;
430;SDS011;202;48.764;9.172;2022-07-24T08:38:28;9.93;;;9.30;;
430;SDS011;202;48.764;9.172;2022-07-24T08:40:55;10.07;;;9.57;;
430;SDS011;202;48.764;9.172;2022-07-24T08:43:24;9.27;;;8.77;;
430;SDS011;202;48.764;9.172;2022-07-24T08:45:51;8.90;;;8.40;;
430;SDS011;202;48.764;9.172;2022-07-24T08:48:21;9.73;;;9.23;;
430;SDS011;202;48.764;9.172;2022-07-24T08:50:49;9.27;;;8.77;;
430;SDS011;202;48.764;9.172;2022-07-24T08:53:18;9.70;;;9.20;;
430;SDS011;202;48.764;9.172;2022-07-24T08:55:46;9.40;;;8.90;;
430;SDS011;202;48.764;9.172;2022-07-24T08:58:13;9.00;;;8.50;;
430;SDS011;202;48.764;9.172;2022-07-24T09:00:42;8.33;;;7.70;;
430;SDS011;202;48.764;9.172;2022-07-24T09:03:09;8.50;;;8.03;;
430;SDS011;202;48.764;9.172;2022-07-24T09:05:51;8.60;;;8.10;;
430;SDS011;202;48.764;9.172;2022-07-24T09:08:19;9.10;;;8.60;;
430;SDS011;202;48.764;9.172;2022-07-24T09:10:53;8.60;;;8.10;;
430;SDS011;202;48.764;9.172;2022-07-24T09:13:24;9.23;;;8.37;;
430;SDS011;202;48.764;9.172;2022-07-24T09:15:56;9.67;;;9.17;;
430;SDS011;202;48.764;9.172;2022-07-24T09:18:27;9.40;;;8.90;;
430;SDS011;202;48.764;9.172;2022-07-24T09:20:57;8.07;;;7.67;;
430;SDS011;202;48.764;9.172;2022-07-24T09:23:25;9.53;;;9.03;;
430;SDS011;202;48.764;9.172;2022-07-24T09:25:53;8.80;;;8.30;;
430;SDS011;202;48.764;9.172;2022-07-24T09:28:21;9.93;;;8.07;;
430;SDS011;202;48.764;9.172;2022-07-24T09:30:52;9.43;;;8.93;;
430;SDS011;202;48.764;9.172;2022-07-24T09:36:26;9.90;;;7.70;;
430;SDS011;202;48.764;9.172;2022-07-24T09:38:53;8.47;;;7.63;;
430;SDS011;202;48.764;9.172;2022-07-24T10:28:40;8.00;;;7.60;;
430;SDS011;202;48.764;9.172;2022-07-24T10:31:09;8.37;;;7.93;;
430;SDS011;202;48.764;9.172;2022-07-24T10:33:40;8.20;;;7.80;;
430;SDS011;202;48.764;9.172;2022-07-24T10:36:14;8.77;;;8.27;;
430;SDS011;202;48.764;9.172;2022-07-24T10:38:48;10.10;;;9.03;;
430;SDS011;202;48.764;9.172;2022-07-24T10:41:26;8.47;;;8.00;;
430;SDS011;202;48.764;9.172;2022-07-24T10:44:13;8.13;;;7.73;;
430;SDS011;202;48.764;9.172;2022-07-24T10:46:57;8.13;;;7.73;;
430;SDS011;202;48.764;9.172;2022-07-24T10:52:22;8.30;;;7.90;;
430;SDS011;202;48.764;9.172;2022-07-24T10:57:52;8.07;;;7.60;;
430;SDS011;202;48.764;9.172;2022-07-24T11:00:23;7.90;;;7.50;;
430;SDS011;202;48.764;9.172;2022-07-24T11:02:55;8.63;;;8.13;;
430;SDS011;202;48.764;9.172;2022-07-24T11:05:24;9.83;;;9.33;;
430;SDS011;202;48.764;9.172;2022-07-24T11:08:19;8.97;;;8.47;;
430;SDS011;202;48.764;9.172;2022-07-24T11:10:59;8.30;;;7.90;;
430;SDS011;202;48.764;9.172;2022-07-24T11:13:41;8.90;;;8.40;;
430;SDS011;202;48.764;9.172;2022-07-24T11:16:25;7.80;;;7.23;;
430;SDS011;202;48.764;9.172;2022-07-24T11:22:02;8.90;;;8.40;;
430;SDS011;202;48.764;9.172;2022-07-24T11:24:33;8.73;;;8.03;;
430;SDS011;202;48.764;9.172;2022-07-24T11:27:04;8.97;;;8.47;;
430;SDS011;202;48.764;9.172;2022-07-24T11:29:33;9.97;;;9.47;;
430;SDS011;202;48.764;9.172;2022-07-24T11:32:03;8.90;;;8.40;;
430;SDS011;202;48.764;9.172;2022-07-24T11:34:32;9.57;;;9.07;;
430;SDS011;202;48.764;9.172;2022-07-24T11:37:01;11.77;;;9.70;;
430;SDS011;202;48.764;9.172;2022-07-24T11:39:32;8.70;;;8.20;;
430;SDS011;202;48.764;9.172;2022-07-24T11:42:00;9.17;;;8.67;;
430;SDS011;202;48.764;9.172;2022-07-24T11:44:30;9.27;;;8.77;;
430;SDS011;202;48.764;9.172;2022-07-24T11:46:58;8.53;;;8.03;;
430;SDS011;202;48.764;9.172;2022-07-24T11:49:27;9.27;;;8.77;;
430;SDS011;202;48.764;9.172;2022-07-24T11:51:54;9.50;;;9.00;;
430;SDS011;202;48.764;9.172;2022-07-24T11:54:22;9.43;;;8.93;;
430;SDS011;202;48.764;9.172;2022-07-24T11:56:50;8.13;;;7.80;;
430;SDS011;202;48.764;9.172;2022-07-24T11:59:21;8.13;;;7.73;;
430;SDS011;202;48.764;9.172;2022-07-24T12:01:49;8.90;;;8.40;;
430;SDS011;202;48.764;9.172;2022-07-24T12:04:18;8.60;;;8.10;;
430;SDS011;202;48.764;9.172;2022-07-24T12:06:48;10.40;;;9.90;;
430;SDS011;202;48.764;9.172;2022-07-24T12:09:15;7.80;;;7.40;;
430;SDS011;202;48.764;9.172;2022-07-24T12:11:42;7.97;;;7.57;;
430;SDS011;202;48.764;9.172;2022-07-24T12:14:13;7.87;;;7.47;;
430;SDS011;202;48.764;9.172;2022-07-24T12:16:42;9.03;;;8.53;;
430;SDS011;202;48.764;9.172;2022-07-24T12:19:13;9.43;;;8.93;;
430;SDS011;202;48.764;9.172;2022-07-24T12:21:41;8.60;;;8.10;;
430;SDS011;202;48.764;9.172;2022-07-24T12:24:10;8.90;;;8.40;;
430;SDS011;202;48.764;9.172;2022-07-24T12:26:49;8.97;;;8.47;;
430;SDS011;202;48.764;9.172;2022-07-24T12:29:18;8.63;;;8.13;;
430;SDS011;202;48.764;9.172;2022-07-24T12:31:54;7.83;;;7.43;;
430;SDS011;202;48.764;9.172;2022-07-24T12:34:40;7.87;;;7.47;;
430;SDS011;202;48.764;9.172;2022-07-24T12:37:14;7.47;;;7.07;;
430;SDS011;202;48.764;9.172;2022-07-24T12:39:55;8.80;;;8.30;;
430;SDS011;202;48.764;9.172;2022-07-24T12:42:30;7.60;;;7.20;;
430;SDS011;202;48.764;9.172;2022-07-24T12:45:05;8.00;;;7.60;;
430;SDS011;202;48.764;9.172;2022-07-24T12:47:35;7.60;;;7.20;;
430;SDS011;202;48.764;9.172;2022-07-24T12:50:17;7.80;;;7.40;;
430;SDS011;202;48.764;9.172;2022-07-24T12:52:44;8.10;;;7.70;;
430;SDS011;202;48.764;9.172;2022-07-24T12:55:21;7.90;;;7.50;;
430;SDS011;202;48.764;9.172;2022-07-24T12:57:48;8.40;;;7.97;;
430;SDS011;202;48.764;9.172;2022-07-24T13:00:24;8.03;;;7.67;;
430;SDS011;202;48.764;9.172;2022-07-24T13:02:51;8.20;;;7.80;;
430;SDS011;202;48.764;9.172;2022-07-24T13:08:03;8.93;;;8.43;;
430;SDS011;202;48.764;9.172;2022-07-24T13:10:32;9.40;;;8.90;;
430;SDS011;202;48.764;9.172;2022-07-24T13:12:58;8.70;;;8.20;;
430;SDS011;202;48.764;9.172;2022-07-24T13:15:25;9.73;;;9.23;;
430;SDS011;202;48.764;9.172;2022-07-24T13:17:52;9.43;;;8.93;;
430;SDS011;202;48.764;9.172;2022-07-24T13:20:19;8.80;;;8.30;;
430;SDS011;202;48.764;9.172;2022-07-24T13:22:46;8.50;;;8.00;;
430;SDS011;202;48.764;9.172;2022-07-24T13:25:13;9.10;;;8.60;;
430;SDS011;202;48.764;9.172;2022-07-24T13:27:41;8.27;;;7.87;;
430;SDS011;202;48.764;9.172;2022-07-24T13:30:08;7.73;;;7.33;;
430;SDS011;202;48.764;9.172;2022-07-24T13:32:36;9.03;;;7.57;;
430;SDS011;202;48.764;9.172;2022-07-24T13:35:03;8.43;;;7.97;;
430;SDS011;202;48.764;9.172;2022-07-24T13:37:30;8.57;;;8.07;;
430;SDS011;202;48.764;9.172;2022-07-24T13:39:57;8.60;;;8.10;;
430;SDS011;202;48.764;9.172;2022-07-24T13:42:24;7.70;;;7.30;;
430;SDS011;202;48.764;9.172;2022-07-24T13:44:53;8.00;;;7.60;;
430;SDS011;202;48.764;9.172;2022-07-24T13:47:20;9.00;;;8.50;;
430;SDS011;202;48.764;9.172;2022-07-24T13:49:47;8.20;;;7.80;;
430;SDS011;202;48.764;9.172;2022-07-24T13:52:14;8.70;;;8.20;;
430;SDS011;202;48.764;9.172;2022-07-24T13:54:41;8.37;;;7.93;;
430;SDS011;202;48.764;9.172;2022-07-24T13:57:08;7.80;;;7.40;;
430;SDS011;202;48.764;9.172;2022-07-24T13:59:38;7.50;;;7.10;;
430;SDS011;202;48.764;9.172;2022-07-24T14:02:06;9.07;;;8.57;;
430;SDS011;202;48.764;9.172;2022-07-24T14:04:33;8.80;;;8.30;;
430;SDS011;202;48.764;9.172;2022-07-24T14:07:01;8.57;;;8.07;;
430;SDS011;202;48.764;9.172;2022-07-24T14:09:28;8.87;;;8.37;;
430;SDS011;202;48.764;9.172;2022-07-24T14:11:55;8.03;;;7.63;;
430;SDS011;202;48.764;9.172;2022-07-24T14:14:22;8.03;;;7.63;;
430;SDS011;202;48.764;9.172;2022-07-24T14:16:49;8.13;;;7.73;;
430;SDS011;202;48.764;9.172;2022-07-24T14:19:18;8.17;;;7.77;;
430;SDS011;202;48.764;9.172;2022-07-24T14:21:45;8.20;;;7.80;;
430;SDS011;202;48.764;9.172;2022-07-24T14:24:13;7.80;;;7.40;;
430;SDS011;202;48.764;9.172;2022-07-24T14:26:42;8.90;;;8.40;;
430;SDS011;202;48.764;9.172;2022-07-24T14:29:12;9.23;;;8.20;;
430;SDS011;202;48.764;9.172;2022-07-24T14:31:39;7.50;;;7.10;;
430;SDS011;202;48.764;9.172;2022-07-24T14:34:06;8.33;;;7.90;;
430;SDS011;202;48.764;9.172;2022-07-24T14:36:35;8.10;;;7.70;;
430;SDS011;202;48.764;9.172;2022-07-24T14:39:02;7.47;;;7.07;;
430;SDS011;202;48.764;9.172;2022-07-24T14:41:30;9.10;;;8.60;;
430;SDS011;202;48.764;9.172;2022-07-24T14:43:58;9.33;;;8.57;;
430;SDS011;202;48.764;9.172;2022-07-24T14:46:25;8.20;;;7.80;;
430;SDS011;202;48.764;9.172;2022-07-24T14:48:52;8.70;;;8.20;;
430;SDS011;202;48.764;9.172;2022-07-24T14:51:19;8.07;;;7.67;;
430;SDS011;202;48.764;9.172;2022-07-24T14:53:48;7.97;;;7.57;;
430;SDS011;202;48.764;9.172;2022-07-24T14:56:15;7.47;;;7.07;;
430;SDS011;202;48.764;9.172;2022-07-24T14:59:05;7.47;;;7.07;;
430;SDS011;202;48.764;9.172;2022-07-24T15:01:47;11.03;;;7.90;;
430;SDS011;202;48.764;9.172;2022-07-24T15:04:15;7.73;;;7.33;;
430;SDS011;202;48.764;9.172;2022-07-24T15:06:42;9.53;;;9.03;;
430;SDS011;202;48.764;9.172;2022-07-24T15:09:11;8.10;;;7.60;;
430;SDS011;202;48.764;9.172;2022-07-24T15:11:38;9.40;;;7.90;;
430;SDS011;202;48.764;9.172;2022-07-24T15:14:07;8.30;;;7.90;;
430;SDS011;202;48.764;9.172;2022-07-24T15:16:37;8.60;;;8.10;;
430;SDS011;202;48.764;9.172;2022-07-24T15:19:05;8.23;;;7.83;;
430;SDS011;202;48.764;9.172;2022-07-24T15:21:34;9.13;;;8.00;;
430;SDS011;202;48.764;9.172;2022-07-24T15:24:06;7.90;;;7.50;;
430;SDS011;202;48.764;9.172;2022-07-24T15:26:52;8.97;;;8.47;;
430;SDS011;202;48.764;9.172;2022-07-24T15:29:22;9.97;;;8.53;;
430;SDS011;202;48.764;9.172;2022-07-24T15:31:52;8.20;;;7.80;;
430;SDS011;202;48.764;9.172;2022-07-24T15:34:19;10.30;;;8.17;;
430;SDS011;202;48.764;9.172;2022-07-24T15:36:52;8.80;;;8.27;;
430;SDS011;202;48.764;9.172;2022-07-24T15:39:22;8.73;;;8.20;;
430;SDS011;202;48.764;9.172;2022-07-24T15:41:54;10.13;;;9.63;;
430;SDS011;202;48.764;9.172;2022-07-24T15:44:44;12.23;;;8.13;;
430;SDS011;202;48.764;9.172;2022-07-24T15:47:29;8.30;;;7.50;;
430;SDS011;202;48.764;9.172;2022-07-24T15:50:02;8.37;;;7.93;;
430;SDS011;202;48.764;9.172;2022-07-24T15:52:32;8.10;;;7.70;;
430;SDS011;202;48.764;9.172;2022-07-24T15:55:03;8.63;;;8.13;;
430;SDS011;202;48.764;9.172;2022-07-24T15:57:35;8.00;;;7.60;;
430;SDS011;202;48.764;9.172;2022-07-24T16:07:27;9.43;;;8.20;;
430;SDS011;202;48.764;9.172;2022-07-24T16:10:18;10.00;;;7.87;;
430;SDS011;202;48.764;9.172;2022-07-24T21:02:39;11.03;;;10.43;;
430;SDS011;202;48.764;9.172;2022-07-24T21:05:14;9.93;;;9.43;;
430;SDS011;202;48.764;9.172;2022-07-24T21:12:26;10.10;;;9.63;;
430;SDS011;202;48.764;9.172;2022-07-24T21:25:47;10.47;;;9.93;;
430;SDS011;202;48.764;9.172;2022-07-24T21:29:00;12.07;;;11.47;;
430;SDS011;202;48.764;9.172;2022-07-24T23:03:46;12.07;;;11.47;;
430;SDS011;202;48.764;9.172;2022-07-24T23:16:49;11.80;;;11.20;;
430;SDS011;202;48.764;9.172;2022-07-24T23:29:09;13.13;;;11.70;;
430;SDS011;202;48.764;9.172;2022-07-24T23:35:38;12.13;;;11.53;;
430;SDS011;202;48.764;9.172;2022-07-24T23:38:56;11.80;;;11.20;;
430;SDS011;202;48.764;9.172;2022-07-24T23:41:46;11.20;;;10.60;;
430;SDS011;202;48.764;9.172;2022-07-24T23:44:36;12.33;;;11.73;;
430;SDS011;202;48.764;9.172;2022-07-24T23:47:50;11.73;;;11.13;;
430;SDS011;202;48.764;9.172;2022-07-24T23:50:49;12.50;;;11.90;;
430;SDS011;202;48.764;9.172;2022-07-24T23:53:28;12.67;;;11.30;;
430;SDS011;202;48.764;9.172;2022-07-24T23:55:57;11.73;;;11.13;;
430;SDS011;202;48.764;9.172;2022-07-24T23:58:31;11.50;;;10.90;;
